Bath, New York
Current Conditions -  °F | °C
As of 2:53 PM on Sunday 23 Nov 2014 (Local Time) from KELM Reporting Station
Overcast Overcast  
Wind Chill: 50°   Ceiling: 10000
Heat Index: 50°   Visibility: 10mi
Dew Point: 41°   Wind: 5mph
Humidity: 71%   Direction: 50°NE
Pressure: 30.02"   Gusts: NA
Location:  42.34°N, 77.32°W
Report Text: KELM 231953Z 05004KT 10SM OVC100 10/05 A3002 RMK AO2 SLP170 T01000050
Loading
Personal Weather Stations






























Interactive Weather Map New forecast layout! Learn more

10-Day Weather Forecast

Advertisements
Track Severe Weather on mobile